sensor_id;sensor_type;location;lat;lon;timestamp;P1;durP1;ratioP1;P2;durP2;ratioP2
46689;SDS011;32423;45.398;10.874;2023-09-19T00:00:47;9.98;;;3.83;;
46689;SDS011;32423;45.398;10.874;2023-09-19T00:03:41;7.93;;;3.38;;
46689;SDS011;32423;45.398;10.874;2023-09-19T00:06:36;7.65;;;3.75;;
46689;SDS011;32423;45.398;10.874;2023-09-19T00:09:30;10.07;;;3.88;;
46689;SDS011;32423;45.398;10.874;2023-09-19T00:12:26;12.35;;;3.35;;
46689;SDS011;32423;45.398;10.874;2023-09-19T00:15:21;6.55;;;2.40;;
46689;SDS011;32423;45.398;10.874;2023-09-19T00:18:15;11.00;;;3.20;;
46689;SDS011;32423;45.398;10.874;2023-09-19T00:21:05;8.23;;;2.75;;
46689;SDS011;32423;45.398;10.874;2023-09-19T00:24:00;9.68;;;2.92;;
46689;SDS011;32423;45.398;10.874;2023-09-19T00:26:54;10.05;;;2.42;;
46689;SDS011;32423;45.398;10.874;2023-09-19T00:29:49;5.80;;;2.45;;
46689;SDS011;32423;45.398;10.874;2023-09-19T00:32:45;12.25;;;3.22;;
46689;SDS011;32423;45.398;10.874;2023-09-19T00:35:39;7.90;;;3.03;;
46689;SDS011;32423;45.398;10.874;2023-09-19T00:38:40;11.05;;;3.05;;
46689;SDS011;32423;45.398;10.874;2023-09-19T00:41:35;8.98;;;2.47;;
46689;SDS011;32423;45.398;10.874;2023-09-19T00:44:27;10.00;;;2.78;;
46689;SDS011;32423;45.398;10.874;2023-09-19T00:47:19;14.05;;;4.15;;
46689;SDS011;32423;45.398;10.874;2023-09-19T00:50:14;12.68;;;2.97;;
46689;SDS011;32423;45.398;10.874;2023-09-19T00:53:09;8.50;;;2.97;;
46689;SDS011;32423;45.398;10.874;2023-09-19T00:56:06;8.82;;;3.33;;
46689;SDS011;32423;45.398;10.874;2023-09-19T00:59:00;5.05;;;2.65;;
46689;SDS011;32423;45.398;10.874;2023-09-19T01:01:55;9.52;;;2.88;;
46689;SDS011;32423;45.398;10.874;2023-09-19T01:04:53;10.05;;;3.53;;
46689;SDS011;32423;45.398;10.874;2023-09-19T01:07:47;15.02;;;3.40;;
46689;SDS011;32423;45.398;10.874;2023-09-19T01:10:42;12.27;;;3.08;;
46689;SDS011;32423;45.398;10.874;2023-09-19T01:14:01;8.68;;;2.95;;
46689;SDS011;32423;45.398;10.874;2023-09-19T01:32:33;10.65;;;3.63;;
46689;SDS011;32423;45.398;10.874;2023-09-19T01:38:20;16.42;;;3.20;;
46689;SDS011;32423;45.398;10.874;2023-09-19T01:41:15;11.65;;;2.83;;
46689;SDS011;32423;45.398;10.874;2023-09-19T01:44:12;11.02;;;3.35;;
46689;SDS011;32423;45.398;10.874;2023-09-19T01:47:33;13.88;;;3.55;;
46689;SDS011;32423;45.398;10.874;2023-09-19T01:50:34;14.95;;;5.25;;
46689;SDS011;32423;45.398;10.874;2023-09-19T01:53:50;9.82;;;4.20;;
46689;SDS011;32423;45.398;10.874;2023-09-19T01:56:47;13.32;;;4.43;;
46689;SDS011;32423;45.398;10.874;2023-09-19T01:59:41;13.18;;;4.13;;
46689;SDS011;32423;45.398;10.874;2023-09-19T02:02:39;13.70;;;4.47;;
46689;SDS011;32423;45.398;10.874;2023-09-19T02:05:35;14.43;;;4.13;;
46689;SDS011;32423;45.398;10.874;2023-09-19T02:08:28;16.52;;;4.90;;
46689;SDS011;32423;45.398;10.874;2023-09-19T02:11:22;18.75;;;4.28;;
46689;SDS011;32423;45.398;10.874;2023-09-19T02:14:17;16.75;;;3.95;;
46689;SDS011;32423;45.398;10.874;2023-09-19T02:17:12;18.75;;;4.28;;
46689;SDS011;32423;45.398;10.874;2023-09-19T02:20:06;18.90;;;4.18;;
46689;SDS011;32423;45.398;10.874;2023-09-19T02:23:04;17.23;;;4.38;;
46689;SDS011;32423;45.398;10.874;2023-09-19T02:25:57;16.25;;;4.53;;
46689;SDS011;32423;45.398;10.874;2023-09-19T02:28:57;15.00;;;4.35;;
46689;SDS011;32423;45.398;10.874;2023-09-19T02:31:53;15.15;;;4.60;;
46689;SDS011;32423;45.398;10.874;2023-09-19T02:34:48;17.42;;;4.20;;
46689;SDS011;32423;45.398;10.874;2023-09-19T02:37:42;15.57;;;4.72;;
46689;SDS011;32423;45.398;10.874;2023-09-19T02:40:37;18.10;;;4.60;;
46689;SDS011;32423;45.398;10.874;2023-09-19T02:43:29;21.17;;;4.82;;
46689;SDS011;32423;45.398;10.874;2023-09-19T02:46:23;16.27;;;4.68;;
46689;SDS011;32423;45.398;10.874;2023-09-19T02:49:13;12.43;;;4.43;;
46689;SDS011;32423;45.398;10.874;2023-09-19T02:52:07;15.70;;;4.18;;
46689;SDS011;32423;45.398;10.874;2023-09-19T02:55:02;16.30;;;4.70;;
46689;SDS011;32423;45.398;10.874;2023-09-19T02:57:58;11.98;;;5.07;;
46689;SDS011;32423;45.398;10.874;2023-09-19T03:00:53;22.00;;;5.97;;
46689;SDS011;32423;45.398;10.874;2023-09-19T03:03:48;25.23;;;4.95;;
46689;SDS011;32423;45.398;10.874;2023-09-19T03:06:40;15.80;;;4.72;;
46689;SDS011;32423;45.398;10.874;2023-09-19T03:09:34;13.60;;;5.05;;
46689;SDS011;32423;45.398;10.874;2023-09-19T03:12:29;16.35;;;5.35;;
46689;SDS011;32423;45.398;10.874;2023-09-19T03:15:23;11.90;;;4.47;;
46689;SDS011;32423;45.398;10.874;2023-09-19T03:18:18;11.38;;;3.95;;
46689;SDS011;32423;45.398;10.874;2023-09-19T03:21:13;19.15;;;4.78;;
46689;SDS011;32423;45.398;10.874;2023-09-19T03:24:07;11.00;;;4.00;;
46689;SDS011;32423;45.398;10.874;2023-09-19T03:27:05;6.95;;;3.92;;
46689;SDS011;32423;45.398;10.874;2023-09-19T03:30:00;7.95;;;4.15;;
46689;SDS011;32423;45.398;10.874;2023-09-19T03:32:56;9.82;;;4.35;;
46689;SDS011;32423;45.398;10.874;2023-09-19T03:35:54;12.75;;;4.95;;
46689;SDS011;32423;45.398;10.874;2023-09-19T03:38:48;11.57;;;4.88;;
46689;SDS011;32423;45.398;10.874;2023-09-19T03:41:41;14.50;;;4.63;;
46689;SDS011;32423;45.398;10.874;2023-09-19T03:44:35;12.48;;;4.90;;
46689;SDS011;32423;45.398;10.874;2023-09-19T03:47:27;11.27;;;4.22;;
46689;SDS011;32423;45.398;10.874;2023-09-19T03:50:22;12.43;;;4.65;;
46689;SDS011;32423;45.398;10.874;2023-09-19T03:53:16;14.70;;;4.20;;
46689;SDS011;32423;45.398;10.874;2023-09-19T03:56:11;13.80;;;5.25;;
46689;SDS011;32423;45.398;10.874;2023-09-19T03:59:03;16.35;;;4.55;;
46689;SDS011;32423;45.398;10.874;2023-09-19T04:01:58;16.35;;;5.15;;
46689;SDS011;32423;45.398;10.874;2023-09-19T04:04:52;8.77;;;4.60;;
46689;SDS011;32423;45.398;10.874;2023-09-19T04:07:47;11.52;;;4.80;;
46689;SDS011;32423;45.398;10.874;2023-09-19T04:10:42;18.30;;;5.30;;
46689;SDS011;32423;45.398;10.874;2023-09-19T04:13:37;14.27;;;5.35;;
46689;SDS011;32423;45.398;10.874;2023-09-19T04:16:32;12.93;;;4.75;;
46689;SDS011;32423;45.398;10.874;2023-09-19T04:19:27;9.13;;;4.47;;
46689;SDS011;32423;45.398;10.874;2023-09-19T04:22:22;17.08;;;5.05;;
46689;SDS011;32423;45.398;10.874;2023-09-19T04:25:17;15.82;;;5.03;;
46689;SDS011;32423;45.398;10.874;2023-09-19T04:28:11;15.50;;;4.55;;
46689;SDS011;32423;45.398;10.874;2023-09-19T04:31:06;13.38;;;4.50;;
46689;SDS011;32423;45.398;10.874;2023-09-19T04:34:00;10.30;;;3.90;;
46689;SDS011;32423;45.398;10.874;2023-09-19T04:36:55;15.60;;;4.20;;
46689;SDS011;32423;45.398;10.874;2023-09-19T04:39:49;14.20;;;4.43;;
46689;SDS011;32423;45.398;10.874;2023-09-19T04:42:44;12.98;;;4.85;;
46689;SDS011;32423;45.398;10.874;2023-09-19T04:45:41;9.05;;;4.32;;
46689;SDS011;32423;45.398;10.874;2023-09-19T04:48:34;10.65;;;4.38;;
46689;SDS011;32423;45.398;10.874;2023-09-19T04:51:28;16.42;;;6.18;;
46689;SDS011;32423;45.398;10.874;2023-09-19T04:57:15;10.95;;;4.13;;
46689;SDS011;32423;45.398;10.874;2023-09-19T05:00:10;11.52;;;4.75;;
46689;SDS011;32423;45.398;10.874;2023-09-19T05:03:09;8.68;;;4.25;;
46689;SDS011;32423;45.398;10.874;2023-09-19T05:06:03;14.10;;;5.50;;
46689;SDS011;32423;45.398;10.874;2023-09-19T05:08:58;11.55;;;4.65;;
46689;SDS011;32423;45.398;10.874;2023-09-19T05:11:53;11.65;;;4.70;;
46689;SDS011;32423;45.398;10.874;2023-09-19T05:14:45;11.10;;;3.80;;
46689;SDS011;32423;45.398;10.874;2023-09-19T05:17:40;14.75;;;4.00;;
46689;SDS011;32423;45.398;10.874;2023-09-19T05:20:40;8.43;;;3.35;;
46689;SDS011;32423;45.398;10.874;2023-09-19T05:23:34;12.43;;;4.47;;
46689;SDS011;32423;45.398;10.874;2023-09-19T05:26:29;9.98;;;3.67;;
46689;SDS011;32423;45.398;10.874;2023-09-19T05:29:23;7.22;;;3.38;;
46689;SDS011;32423;45.398;10.874;2023-09-19T05:32:18;12.45;;;4.10;;
46689;SDS011;32423;45.398;10.874;2023-09-19T05:35:12;9.82;;;3.75;;
46689;SDS011;32423;45.398;10.874;2023-09-19T05:38:07;10.55;;;3.28;;
46689;SDS011;32423;45.398;10.874;2023-09-19T05:41:03;9.93;;;3.33;;
46689;SDS011;32423;45.398;10.874;2023-09-19T05:43:55;14.85;;;2.55;;
46689;SDS011;32423;45.398;10.874;2023-09-19T05:46:49;10.30;;;3.13;;
46689;SDS011;32423;45.398;10.874;2023-09-19T05:49:43;9.43;;;3.45;;
46689;SDS011;32423;45.398;10.874;2023-09-19T05:52:38;10.02;;;3.63;;
46689;SDS011;32423;45.398;10.874;2023-09-19T05:55:32;15.70;;;3.50;;
46689;SDS011;32423;45.398;10.874;2023-09-19T05:58:27;6.43;;;3.28;;
46689;SDS011;32423;45.398;10.874;2023-09-19T06:01:22;9.50;;;3.22;;
46689;SDS011;32423;45.398;10.874;2023-09-19T06:04:17;9.60;;;2.90;;
46689;SDS011;32423;45.398;10.874;2023-09-19T06:10:07;10.80;;;2.28;;
46689;SDS011;32423;45.398;10.874;2023-09-19T06:12:59;11.43;;;2.85;;
46689;SDS011;32423;45.398;10.874;2023-09-19T06:15:56;12.70;;;2.47;;
46689;SDS011;32423;45.398;10.874;2023-09-19T06:18:51;3.97;;;2.00;;
46689;SDS011;32423;45.398;10.874;2023-09-19T06:21:46;12.05;;;2.88;;
46689;SDS011;32423;45.398;10.874;2023-09-19T06:24:37;5.22;;;2.50;;
46689;SDS011;32423;45.398;10.874;2023-09-19T06:27:32;10.38;;;3.00;;
46689;SDS011;32423;45.398;10.874;2023-09-19T06:30:26;9.80;;;2.33;;
46689;SDS011;32423;45.398;10.874;2023-09-19T06:33:20;12.85;;;2.70;;
46689;SDS011;32423;45.398;10.874;2023-09-19T06:36:14;14.57;;;2.60;;
46689;SDS011;32423;45.398;10.874;2023-09-19T06:39:09;23.13;;;5.45;;
46689;SDS011;32423;45.398;10.874;2023-09-19T06:42:03;36.15;;;12.38;;
46689;SDS011;32423;45.398;10.874;2023-09-19T06:44:58;9.70;;;2.85;;
46689;SDS011;32423;45.398;10.874;2023-09-19T06:47:53;11.52;;;2.53;;
46689;SDS011;32423;45.398;10.874;2023-09-19T06:50:47;12.40;;;2.97;;
46689;SDS011;32423;45.398;10.874;2023-09-19T06:56:34;11.73;;;3.28;;
46689;SDS011;32423;45.398;10.874;2023-09-19T06:59:26;12.77;;;3.05;;
46689;SDS011;32423;45.398;10.874;2023-09-19T07:02:20;10.43;;;3.00;;
46689;SDS011;32423;45.398;10.874;2023-09-19T07:05:15;9.88;;;2.50;;
46689;SDS011;32423;45.398;10.874;2023-09-19T07:08:09;8.25;;;2.47;;
46689;SDS011;32423;45.398;10.874;2023-09-19T07:11:05;8.30;;;2.72;;
46689;SDS011;32423;45.398;10.874;2023-09-19T07:13:59;9.65;;;2.20;;
46689;SDS011;32423;45.398;10.874;2023-09-19T07:16:54;5.32;;;2.47;;
46689;SDS011;32423;45.398;10.874;2023-09-19T07:19:46;4.65;;;2.22;;
46689;SDS011;32423;45.398;10.874;2023-09-19T07:22:40;22.08;;;3.67;;
46689;SDS011;32423;45.398;10.874;2023-09-19T07:25:35;11.35;;;2.33;;
46689;SDS011;32423;45.398;10.874;2023-09-19T07:28:29;10.43;;;2.55;;
46689;SDS011;32423;45.398;10.874;2023-09-19T07:31:24;7.60;;;1.90;;
46689;SDS011;32423;45.398;10.874;2023-09-19T07:37:11;7.15;;;1.83;;
46689;SDS011;32423;45.398;10.874;2023-09-19T07:42:58;7.30;;;1.25;;
46689;SDS011;32423;45.398;10.874;2023-09-19T07:45:54;10.38;;;1.52;;
46689;SDS011;32423;45.398;10.874;2023-09-19T07:48:47;6.72;;;1.40;;
46689;SDS011;32423;45.398;10.874;2023-09-19T07:54:33;6.25;;;1.23;;
46689;SDS011;32423;45.398;10.874;2023-09-19T07:57:28;5.47;;;1.40;;
46689;SDS011;32423;45.398;10.874;2023-09-19T08:00:23;4.60;;;1.00;;
46689;SDS011;32423;45.398;10.874;2023-09-19T08:03:18;8.27;;;1.88;;
46689;SDS011;32423;45.398;10.874;2023-09-19T08:06:12;4.20;;;1.23;;
46689;SDS011;32423;45.398;10.874;2023-09-19T08:11:59;4.50;;;1.75;;
46689;SDS011;32423;45.398;10.874;2023-09-19T08:14:56;4.78;;;1.35;;
46689;SDS011;32423;45.398;10.874;2023-09-19T08:20:40;11.60;;;1.70;;
46689;SDS011;32423;45.398;10.874;2023-09-19T08:26:28;5.10;;;1.23;;
46689;SDS011;32423;45.398;10.874;2023-09-19T08:29:22;8.93;;;1.40;;
46689;SDS011;32423;45.398;10.874;2023-09-19T08:35:09;4.57;;;1.25;;
46689;SDS011;32423;45.398;10.874;2023-09-19T08:38:03;6.22;;;1.52;;
46689;SDS011;32423;45.398;10.874;2023-09-19T08:40:55;8.32;;;1.63;;
46689;SDS011;32423;45.398;10.874;2023-09-19T08:43:51;6.80;;;0.75;;
46689;SDS011;32423;45.398;10.874;2023-09-19T08:46:45;5.20;;;1.55;;
46689;SDS011;32423;45.398;10.874;2023-09-19T08:52:50;13.15;;;1.70;;
46689;SDS011;32423;45.398;10.874;2023-09-19T08:58:44;7.60;;;1.80;;
46689;SDS011;32423;45.398;10.874;2023-09-19T09:01:42;5.75;;;1.77;;
46689;SDS011;32423;45.398;10.874;2023-09-19T09:04:38;5.30;;;1.17;;
46689;SDS011;32423;45.398;10.874;2023-09-19T09:07:33;7.00;;;1.70;;
46689;SDS011;32423;45.398;10.874;2023-09-19T09:10:28;8.77;;;2.35;;
46689;SDS011;32423;45.398;10.874;2023-09-19T09:13:23;7.13;;;1.58;;
46689;SDS011;32423;45.398;10.874;2023-09-19T09:16:18;6.80;;;2.22;;
46689;SDS011;32423;45.398;10.874;2023-09-19T09:19:13;8.23;;;2.28;;
46689;SDS011;32423;45.398;10.874;2023-09-19T09:22:13;9.77;;;1.70;;
46689;SDS011;32423;45.398;10.874;2023-09-19T09:25:07;3.03;;;1.55;;
46689;SDS011;32423;45.398;10.874;2023-09-19T09:28:02;9.57;;;2.40;;
46689;SDS011;32423;45.398;10.874;2023-09-19T09:30:54;7.43;;;1.95;;
46689;SDS011;32423;45.398;10.874;2023-09-19T09:33:52;9.93;;;1.85;;
46689;SDS011;32423;45.398;10.874;2023-09-19T09:36:47;10.18;;;2.47;;
46689;SDS011;32423;45.398;10.874;2023-09-19T09:39:40;7.20;;;1.92;;
46689;SDS011;32423;45.398;10.874;2023-09-19T09:42:40;7.93;;;2.60;;
46689;SDS011;32423;45.398;10.874;2023-09-19T09:45:35;13.40;;;2.60;;
46689;SDS011;32423;45.398;10.874;2023-09-19T09:48:34;7.93;;;2.10;;
46689;SDS011;32423;45.398;10.874;2023-09-19T09:51:32;18.33;;;2.38;;
46689;SDS011;32423;45.398;10.874;2023-09-19T09:54:28;13.65;;;2.80;;
46689;SDS011;32423;45.398;10.874;2023-09-19T09:57:26;13.52;;;2.58;;
46689;SDS011;32423;45.398;10.874;2023-09-19T10:00:18;6.60;;;1.92;;
46689;SDS011;32423;45.398;10.874;2023-09-19T10:03:10;13.25;;;2.65;;
46689;SDS011;32423;45.398;10.874;2023-09-19T10:06:21;9.75;;;1.90;;
46689;SDS011;32423;45.398;10.874;2023-09-19T10:09:14;5.15;;;1.67;;
46689;SDS011;32423;45.398;10.874;2023-09-19T10:12:09;12.90;;;2.67;;
46689;SDS011;32423;45.398;10.874;2023-09-19T10:15:07;7.28;;;2.40;;
46689;SDS011;32423;45.398;10.874;2023-09-19T10:18:10;8.15;;;1.90;;
46689;SDS011;32423;45.398;10.874;2023-09-19T10:21:05;4.75;;;2.28;;
46689;SDS011;32423;45.398;10.874;2023-09-19T10:24:00;14.07;;;1.92;;
46689;SDS011;32423;45.398;10.874;2023-09-19T10:26:57;6.97;;;2.17;;
46689;SDS011;32423;45.398;10.874;2023-09-19T10:29:53;10.93;;;1.77;;
46689;SDS011;32423;45.398;10.874;2023-09-19T10:32:46;8.30;;;2.20;;
46689;SDS011;32423;45.398;10.874;2023-09-19T10:35:48;9.05;;;2.13;;
46689;SDS011;32423;45.398;10.874;2023-09-19T10:38:44;9.88;;;2.72;;
46689;SDS011;32423;45.398;10.874;2023-09-19T10:41:41;6.47;;;1.70;;
46689;SDS011;32423;45.398;10.874;2023-09-19T10:44:43;9.25;;;1.95;;
46689;SDS011;32423;45.398;10.874;2023-09-19T10:47:43;4.85;;;1.60;;
46689;SDS011;32423;45.398;10.874;2023-09-19T10:50:53;8.85;;;2.60;;
46689;SDS011;32423;45.398;10.874;2023-09-19T10:54:05;7.72;;;2.05;;
46689;SDS011;32423;45.398;10.874;2023-09-19T10:57:02;6.85;;;1.65;;
46689;SDS011;32423;45.398;10.874;2023-09-19T11:00:03;2.63;;;1.08;;
46689;SDS011;32423;45.398;10.874;2023-09-19T11:06:07;10.77;;;2.72;;
46689;SDS011;32423;45.398;10.874;2023-09-19T11:09:09;10.32;;;1.75;;
46689;SDS011;32423;45.398;10.874;2023-09-19T11:12:11;9.43;;;2.28;;
46689;SDS011;32423;45.398;10.874;2023-09-19T11:21:40;10.48;;;2.17;;
46689;SDS011;32423;45.398;10.874;2023-09-19T11:24:44;6.68;;;1.70;;
46689;SDS011;32423;45.398;10.874;2023-09-19T11:27:38;4.50;;;1.95;;
46689;SDS011;32423;45.398;10.874;2023-09-19T11:31:40;10.15;;;1.60;;
46689;SDS011;32423;45.398;10.874;2023-09-19T11:34:43;4.65;;;1.70;;
46689;SDS011;32423;45.398;10.874;2023-09-19T11:40:35;6.85;;;1.98;;
46689;SDS011;32423;45.398;10.874;2023-09-19T11:43:30;10.55;;;1.95;;
46689;SDS011;32423;45.398;10.874;2023-09-19T11:46:24;9.88;;;2.50;;
46689;SDS011;32423;45.398;10.874;2023-09-19T11:49:19;4.15;;;1.90;;
46689;SDS011;32423;45.398;10.874;2023-09-19T11:52:19;7.57;;;2.00;;
46689;SDS011;32423;45.398;10.874;2023-09-19T11:55:13;4.80;;;2.20;;
46689;SDS011;32423;45.398;10.874;2023-09-19T11:58:09;4.25;;;2.05;;
46689;SDS011;32423;45.398;10.874;2023-09-19T12:01:06;4.60;;;1.50;;
46689;SDS011;32423;45.398;10.874;2023-09-19T12:04:10;8.32;;;2.25;;
46689;SDS011;32423;45.398;10.874;2023-09-19T12:07:03;8.30;;;2.10;;
46689;SDS011;32423;45.398;10.874;2023-09-19T12:10:06;5.85;;;1.63;;
46689;SDS011;32423;45.398;10.874;2023-09-19T12:13:01;9.73;;;2.05;;
46689;SDS011;32423;45.398;10.874;2023-09-19T12:15:56;10.88;;;1.98;;
46689;SDS011;32423;45.398;10.874;2023-09-19T12:18:48;5.75;;;2.08;;
46689;SDS011;32423;45.398;10.874;2023-09-19T12:21:43;12.23;;;2.10;;
46689;SDS011;32423;45.398;10.874;2023-09-19T12:24:45;5.57;;;1.50;;
46689;SDS011;32423;45.398;10.874;2023-09-19T12:27:44;8.43;;;2.72;;
46689;SDS011;32423;45.398;10.874;2023-09-19T12:30:40;9.02;;;1.75;;
46689;SDS011;32423;45.398;10.874;2023-09-19T12:33:35;5.97;;;2.40;;
46689;SDS011;32423;45.398;10.874;2023-09-19T12:36:29;7.57;;;2.47;;
46689;SDS011;32423;45.398;10.874;2023-09-19T12:39:24;4.78;;;1.48;;
46689;SDS011;32423;45.398;10.874;2023-09-19T12:42:19;3.45;;;2.10;;
46689;SDS011;32423;45.398;10.874;2023-09-19T12:45:12;7.35;;;2.40;;
46689;SDS011;32423;45.398;10.874;2023-09-19T12:48:22;6.72;;;2.28;;
46689;SDS011;32423;45.398;10.874;2023-09-19T12:51:16;8.80;;;1.90;;
46689;SDS011;32423;45.398;10.874;2023-09-19T12:54:12;9.73;;;2.92;;
46689;SDS011;32423;45.398;10.874;2023-09-19T12:57:06;9.80;;;3.63;;
46689;SDS011;32423;45.398;10.874;2023-09-19T13:00:13;12.07;;;2.88;;
46689;SDS011;32423;45.398;10.874;2023-09-19T13:03:16;20.60;;;3.22;;
46689;SDS011;32423;45.398;10.874;2023-09-19T13:06:14;12.07;;;2.70;;
46689;SDS011;32423;45.398;10.874;2023-09-19T13:09:27;16.13;;;2.75;;
46689;SDS011;32423;45.398;10.874;2023-09-19T13:12:38;6.57;;;2.35;;
46689;SDS011;32423;45.398;10.874;2023-09-19T13:15:32;14.30;;;3.15;;
46689;SDS011;32423;45.398;10.874;2023-09-19T13:18:53;9.55;;;2.65;;
46689;SDS011;32423;45.398;10.874;2023-09-19T13:21:44;366.92;;;71.55;;
46689;SDS011;32423;45.398;10.874;2023-09-19T13:24:36;527.30;;;115.93;;
46689;SDS011;32423;45.398;10.874;2023-09-19T13:27:30;269.92;;;52.63;;
46689;SDS011;32423;45.398;10.874;2023-09-19T13:30:23;180.25;;;37.92;;
46689;SDS011;32423;45.398;10.874;2023-09-19T13:33:17;39.53;;;11.43;;
46689;SDS011;32423;45.398;10.874;2023-09-19T13:36:12;18.98;;;4.88;;
46689;SDS011;32423;45.398;10.874;2023-09-19T13:39:07;14.32;;;4.20;;
46689;SDS011;32423;45.398;10.874;2023-09-19T13:42:01;14.32;;;3.30;;
46689;SDS011;32423;45.398;10.874;2023-09-19T13:44:53;9.05;;;2.70;;
46689;SDS011;32423;45.398;10.874;2023-09-19T13:47:48;13.43;;;2.67;;
46689;SDS011;32423;45.398;10.874;2023-09-19T13:50:42;13.75;;;3.05;;
46689;SDS011;32423;45.398;10.874;2023-09-19T13:56:29;8.90;;;2.40;;
46689;SDS011;32423;45.398;10.874;2023-09-19T13:59:18;5.93;;;2.38;;
46689;SDS011;32423;45.398;10.874;2023-09-19T14:02:13;14.48;;;3.88;;
46689;SDS011;32423;45.398;10.874;2023-09-19T14:05:05;11.30;;;2.50;;
46689;SDS011;32423;45.398;10.874;2023-09-19T14:08:01;5.47;;;2.00;;
46689;SDS011;32423;45.398;10.874;2023-09-19T14:10:56;16.42;;;2.78;;
46689;SDS011;32423;45.398;10.874;2023-09-19T14:13:50;9.93;;;2.33;;
46689;SDS011;32423;45.398;10.874;2023-09-19T14:16:45;7.38;;;2.15;;
46689;SDS011;32423;45.398;10.874;2023-09-19T14:22:32;9.15;;;2.63;;
46689;SDS011;32423;45.398;10.874;2023-09-19T14:28:18;9.68;;;2.05;;
46689;SDS011;32423;45.398;10.874;2023-09-19T14:31:17;7.00;;;1.92;;
46689;SDS011;32423;45.398;10.874;2023-09-19T14:34:12;5.05;;;1.63;;
46689;SDS011;32423;45.398;10.874;2023-09-19T14:37:06;8.75;;;1.67;;
46689;SDS011;32423;45.398;10.874;2023-09-19T14:42:56;6.25;;;1.48;;
46689;SDS011;32423;45.398;10.874;2023-09-19T14:48:42;4.95;;;1.58;;
46689;SDS011;32423;45.398;10.874;2023-09-19T14:51:40;4.97;;;1.75;;
46689;SDS011;32423;45.398;10.874;2023-09-19T14:57:24;17.05;;;1.65;;
46689;SDS011;32423;45.398;10.874;2023-09-19T15:00:17;6.15;;;1.77;;
46689;SDS011;32423;45.398;10.874;2023-09-19T15:06:04;3.42;;;1.30;;
46689;SDS011;32423;45.398;10.874;2023-09-19T15:09:07;7.13;;;1.40;;
46689;SDS011;32423;45.398;10.874;2023-09-19T15:12:01;7.22;;;1.40;;
46689;SDS011;32423;45.398;10.874;2023-09-19T15:14:54;9.40;;;1.85;;
46689;SDS011;32423;45.398;10.874;2023-09-19T15:18:28;4.53;;;1.35;;
46689;SDS011;32423;45.398;10.874;2023-09-19T15:21:23;4.05;;;1.45;;
46689;SDS011;32423;45.398;10.874;2023-09-19T15:24:12;2.95;;;1.50;;
46689;SDS011;32423;45.398;10.874;2023-09-19T15:27:04;6.68;;;1.80;;
46689;SDS011;32423;45.398;10.874;2023-09-19T15:29:59;11.43;;;2.17;;
46689;SDS011;32423;45.398;10.874;2023-09-19T15:32:54;7.03;;;1.63;;
46689;SDS011;32423;45.398;10.874;2023-09-19T15:38:59;8.25;;;1.70;;
46689;SDS011;32423;45.398;10.874;2023-09-19T15:42:03;7.13;;;1.63;;
46689;SDS011;32423;45.398;10.874;2023-09-19T15:44:55;3.28;;;1.30;;
46689;SDS011;32423;45.398;10.874;2023-09-19T15:47:47;4.10;;;1.60;;
46689;SDS011;32423;45.398;10.874;2023-09-19T15:50:39;7.88;;;1.67;;
46689;SDS011;32423;45.398;10.874;2023-09-19T15:53:43;7.15;;;1.90;;
46689;SDS011;32423;45.398;10.874;2023-09-19T15:56:39;5.75;;;1.85;;
46689;SDS011;32423;45.398;10.874;2023-09-19T15:59:30;5.82;;;2.00;;
46689;SDS011;32423;45.398;10.874;2023-09-19T16:02:27;8.95;;;1.88;;
46689;SDS011;32423;45.398;10.874;2023-09-19T16:05:21;5.53;;;1.98;;
46689;SDS011;32423;45.398;10.874;2023-09-19T16:11:08;4.43;;;1.45;;
46689;SDS011;32423;45.398;10.874;2023-09-19T16:16:56;5.82;;;1.92;;
46689;SDS011;32423;45.398;10.874;2023-09-19T16:19:51;4.78;;;1.40;;
46689;SDS011;32423;45.398;10.874;2023-09-19T16:22:45;3.90;;;1.63;;
46689;SDS011;32423;45.398;10.874;2023-09-19T16:25:40;11.27;;;1.90;;
46689;SDS011;32423;45.398;10.874;2023-09-19T16:31:25;10.00;;;2.42;;
46689;SDS011;32423;45.398;10.874;2023-09-19T16:34:20;7.38;;;1.73;;
46689;SDS011;32423;45.398;10.874;2023-09-19T16:37:14;8.80;;;1.77;;
46689;SDS011;32423;45.398;10.874;2023-09-19T16:40:09;5.20;;;1.45;;
46689;SDS011;32423;45.398;10.874;2023-09-19T16:43:01;3.75;;;1.55;;
46689;SDS011;32423;45.398;10.874;2023-09-19T16:45:59;6.40;;;1.25;;
46689;SDS011;32423;45.398;10.874;2023-09-19T16:48:50;5.95;;;1.90;;
46689;SDS011;32423;45.398;10.874;2023-09-19T16:51:42;7.03;;;2.50;;
46689;SDS011;32423;45.398;10.874;2023-09-19T16:54:36;4.78;;;1.73;;
46689;SDS011;32423;45.398;10.874;2023-09-19T16:57:29;8.82;;;1.63;;
46689;SDS011;32423;45.398;10.874;2023-09-19T17:00:21;4.60;;;1.35;;
46689;SDS011;32423;45.398;10.874;2023-09-19T17:03:13;4.60;;;1.60;;
46689;SDS011;32423;45.398;10.874;2023-09-19T17:06:14;4.28;;;1.75;;
46689;SDS011;32423;45.398;10.874;2023-09-19T17:09:09;5.35;;;1.73;;
46689;SDS011;32423;45.398;10.874;2023-09-19T17:12:05;2.28;;;1.65;;
46689;SDS011;32423;45.398;10.874;2023-09-19T17:14:58;3.47;;;1.23;;
46689;SDS011;32423;45.398;10.874;2023-09-19T17:17:53;3.50;;;2.08;;
46689;SDS011;32423;45.398;10.874;2023-09-19T17:20:45;7.78;;;2.13;;
46689;SDS011;32423;45.398;10.874;2023-09-19T17:23:39;7.85;;;2.45;;
46689;SDS011;32423;45.398;10.874;2023-09-19T17:26:34;4.93;;;1.80;;
46689;SDS011;32423;45.398;10.874;2023-09-19T17:29:26;5.10;;;1.77;;
46689;SDS011;32423;45.398;10.874;2023-09-19T17:32:21;5.97;;;1.85;;
46689;SDS011;32423;45.398;10.874;2023-09-19T17:35:15;4.28;;;1.77;;
46689;SDS011;32423;45.398;10.874;2023-09-19T17:38:08;5.35;;;1.73;;
46689;SDS011;32423;45.398;10.874;2023-09-19T17:41:00;9.05;;;1.75;;
46689;SDS011;32423;45.398;10.874;2023-09-19T17:43:57;10.88;;;2.15;;
46689;SDS011;32423;45.398;10.874;2023-09-19T17:46:51;9.18;;;2.25;;
46689;SDS011;32423;45.398;10.874;2023-09-19T17:49:43;12.00;;;2.03;;
46689;SDS011;32423;45.398;10.874;2023-09-19T17:52:39;4.07;;;2.08;;
46689;SDS011;32423;45.398;10.874;2023-09-19T17:55:35;8.50;;;2.15;;
46689;SDS011;32423;45.398;10.874;2023-09-19T17:58:31;6.95;;;2.85;;
46689;SDS011;32423;45.398;10.874;2023-09-19T18:01:25;8.55;;;2.90;;
46689;SDS011;32423;45.398;10.874;2023-09-19T18:04:19;8.32;;;2.38;;
46689;SDS011;32423;45.398;10.874;2023-09-19T18:07:14;6.60;;;2.90;;
46689;SDS011;32423;45.398;10.874;2023-09-19T18:10:09;6.57;;;2.67;;
46689;SDS011;32423;45.398;10.874;2023-09-19T18:13:01;5.68;;;2.85;;
46689;SDS011;32423;45.398;10.874;2023-09-19T18:15:55;10.52;;;2.38;;
46689;SDS011;32423;45.398;10.874;2023-09-19T18:18:50;9.52;;;2.95;;
46689;SDS011;32423;45.398;10.874;2023-09-19T18:21:44;12.05;;;4.57;;
46689;SDS011;32423;45.398;10.874;2023-09-19T18:27:29;10.35;;;4.68;;
46689;SDS011;32423;45.398;10.874;2023-09-19T18:30:24;152.60;;;63.70;;
46689;SDS011;32423;45.398;10.874;2023-09-19T18:33:19;67.60;;;27.45;;
46689;SDS011;32423;45.398;10.874;2023-09-19T18:36:13;55.92;;;24.50;;
46689;SDS011;32423;45.398;10.874;2023-09-19T18:39:08;38.47;;;16.83;;
46689;SDS011;32423;45.398;10.874;2023-09-19T18:42:03;32.50;;;11.20;;
46689;SDS011;32423;45.398;10.874;2023-09-19T18:44:58;41.92;;;17.50;;
46689;SDS011;32423;45.398;10.874;2023-09-19T18:47:50;39.42;;;14.73;;
46689;SDS011;32423;45.398;10.874;2023-09-19T18:50:45;23.77;;;9.45;;
46689;SDS011;32423;45.398;10.874;2023-09-19T18:53:39;18.48;;;7.38;;
46689;SDS011;32423;45.398;10.874;2023-09-19T18:56:31;47.15;;;18.35;;